sensor_id;sensor_type;location;lat;lon;timestamp;P1;durP1;ratioP1;P2;durP2;ratioP2
13720;SDS011;6932;51.438;5.470;2023-02-18T00:00:57;13.47;;;8.87;;
13720;SDS011;6932;51.438;5.470;2023-02-18T00:03:24;13.23;;;8.77;;
13720;SDS011;6932;51.438;5.470;2023-02-18T00:05:52;12.70;;;8.93;;
13720;SDS011;6932;51.438;5.470;2023-02-18T00:08:18;12.57;;;8.77;;
13720;SDS011;6932;51.438;5.470;2023-02-18T00:10:44;13.53;;;8.80;;
13720;SDS011;6932;51.438;5.470;2023-02-18T00:13:10;12.60;;;8.97;;
13720;SDS011;6932;51.438;5.470;2023-02-18T00:15:36;13.90;;;9.83;;
13720;SDS011;6932;51.438;5.470;2023-02-18T00:18:03;14.67;;;9.57;;
13720;SDS011;6932;51.438;5.470;2023-02-18T00:20:30;15.00;;;9.10;;
13720;SDS011;6932;51.438;5.470;2023-02-18T00:22:57;13.83;;;8.77;;
13720;SDS011;6932;51.438;5.470;2023-02-18T00:25:24;13.33;;;8.63;;
13720;SDS011;6932;51.438;5.470;2023-02-18T00:27:49;12.70;;;8.00;;
13720;SDS011;6932;51.438;5.470;2023-02-18T00:30:15;14.20;;;9.03;;
13720;SDS011;6932;51.438;5.470;2023-02-18T00:32:41;13.00;;;8.70;;
13720;SDS011;6932;51.438;5.470;2023-02-18T00:35:07;13.87;;;9.03;;
13720;SDS011;6932;51.438;5.470;2023-02-18T00:37:33;13.00;;;8.17;;
13720;SDS011;6932;51.438;5.470;2023-02-18T00:39:59;13.17;;;8.27;;
13720;SDS011;6932;51.438;5.470;2023-02-18T00:42:25;13.43;;;8.50;;
13720;SDS011;6932;51.438;5.470;2023-02-18T00:44:51;12.60;;;8.13;;
13720;SDS011;6932;51.438;5.470;2023-02-18T00:47:16;13.37;;;8.10;;
13720;SDS011;6932;51.438;5.470;2023-02-18T00:49:42;13.00;;;7.97;;
13720;SDS011;6932;51.438;5.470;2023-02-18T00:52:08;12.73;;;7.93;;
13720;SDS011;6932;51.438;5.470;2023-02-18T00:54:33;11.57;;;8.10;;
13720;SDS011;6932;51.438;5.470;2023-02-18T00:56:59;12.73;;;8.17;;
13720;SDS011;6932;51.438;5.470;2023-02-18T00:59:25;13.10;;;8.17;;
13720;SDS011;6932;51.438;5.470;2023-02-18T01:01:51;11.67;;;7.57;;
13720;SDS011;6932;51.438;5.470;2023-02-18T01:04:16;13.20;;;8.40;;
13720;SDS011;6932;51.438;5.470;2023-02-18T01:06:42;11.97;;;7.63;;
13720;SDS011;6932;51.438;5.470;2023-02-18T01:09:08;11.33;;;8.03;;
13720;SDS011;6932;51.438;5.470;2023-02-18T01:11:34;11.60;;;7.60;;
13720;SDS011;6932;51.438;5.470;2023-02-18T01:14:00;11.83;;;7.93;;
13720;SDS011;6932;51.438;5.470;2023-02-18T01:16:26;11.67;;;7.43;;
13720;SDS011;6932;51.438;5.470;2023-02-18T01:18:53;10.60;;;7.03;;
13720;SDS011;6932;51.438;5.470;2023-02-18T01:21:19;11.20;;;6.77;;
13720;SDS011;6932;51.438;5.470;2023-02-18T01:23:45;11.43;;;6.73;;
13720;SDS011;6932;51.438;5.470;2023-02-18T01:26:11;9.93;;;6.20;;
13720;SDS011;6932;51.438;5.470;2023-02-18T01:28:37;9.33;;;5.90;;
13720;SDS011;6932;51.438;5.470;2023-02-18T01:31:06;10.03;;;6.10;;
13720;SDS011;6932;51.438;5.470;2023-02-18T01:33:36;9.60;;;5.80;;
13720;SDS011;6932;51.438;5.470;2023-02-18T01:36:02;9.73;;;6.03;;
13720;SDS011;6932;51.438;5.470;2023-02-18T01:38:29;9.10;;;5.87;;
13720;SDS011;6932;51.438;5.470;2023-02-18T01:40:54;9.97;;;5.90;;
13720;SDS011;6932;51.438;5.470;2023-02-18T01:43:20;10.43;;;5.87;;
13720;SDS011;6932;51.438;5.470;2023-02-18T01:51:08;10.53;;;6.50;;
13720;SDS011;6932;51.438;5.470;2023-02-18T01:59:39;10.53;;;6.90;;
13720;SDS011;6932;51.438;5.470;2023-02-18T02:02:11;10.23;;;6.53;;
13720;SDS011;6932;51.438;5.470;2023-02-18T02:04:41;10.97;;;6.80;;
13720;SDS011;6932;51.438;5.470;2023-02-18T02:07:08;10.87;;;6.87;;
13720;SDS011;6932;51.438;5.470;2023-02-18T02:09:34;11.70;;;6.77;;
13720;SDS011;6932;51.438;5.470;2023-02-18T02:12:13;10.93;;;7.20;;
13720;SDS011;6932;51.438;5.470;2023-02-18T02:45:18;9.63;;;6.50;;
13720;SDS011;6932;51.438;5.470;2023-02-18T02:50:36;8.90;;;5.67;;
13720;SDS011;6932;51.438;5.470;2023-02-18T02:53:40;8.93;;;5.40;;
13720;SDS011;6932;51.438;5.470;2023-02-18T02:56:17;7.70;;;5.07;;
13720;SDS011;6932;51.438;5.470;2023-02-18T02:58:51;8.10;;;5.17;;
13720;SDS011;6932;51.438;5.470;2023-02-18T03:01:34;6.73;;;4.53;;
13720;SDS011;6932;51.438;5.470;2023-02-18T03:10:41;5.83;;;4.10;;
13720;SDS011;6932;51.438;5.470;2023-02-18T03:17:19;5.80;;;3.87;;
13720;SDS011;6932;51.438;5.470;2023-02-18T03:20:08;5.80;;;4.00;;
13720;SDS011;6932;51.438;5.470;2023-02-18T03:22:44;6.33;;;4.10;;
13720;SDS011;6932;51.438;5.470;2023-02-18T03:25:13;6.00;;;3.73;;
13720;SDS011;6932;51.438;5.470;2023-02-18T03:30:24;4.50;;;3.20;;
13720;SDS011;6932;51.438;5.470;2023-02-18T03:32:59;5.20;;;3.30;;
13720;SDS011;6932;51.438;5.470;2023-02-18T03:35:31;5.43;;;3.47;;
13720;SDS011;6932;51.438;5.470;2023-02-18T03:38:06;4.23;;;3.00;;
13720;SDS011;6932;51.438;5.470;2023-02-18T03:40:47;4.73;;;3.47;;
13720;SDS011;6932;51.438;5.470;2023-02-18T03:43:14;5.03;;;3.03;;
13720;SDS011;6932;51.438;5.470;2023-02-18T03:45:40;3.93;;;2.67;;
13720;SDS011;6932;51.438;5.470;2023-02-18T03:48:06;3.50;;;2.67;;
13720;SDS011;6932;51.438;5.470;2023-02-18T03:50:32;3.47;;;2.47;;
13720;SDS011;6932;51.438;5.470;2023-02-18T03:52:58;4.50;;;2.50;;
13720;SDS011;6932;51.438;5.470;2023-02-18T03:55:24;3.67;;;2.30;;
13720;SDS011;6932;51.438;5.470;2023-02-18T03:57:50;2.90;;;2.20;;
13720;SDS011;6932;51.438;5.470;2023-02-18T04:00:16;2.97;;;2.13;;
13720;SDS011;6932;51.438;5.470;2023-02-18T04:02:42;2.43;;;1.93;;
13720;SDS011;6932;51.438;5.470;2023-02-18T04:05:08;2.17;;;1.77;;
13720;SDS011;6932;51.438;5.470;2023-02-18T04:07:34;2.23;;;1.80;;
13720;SDS011;6932;51.438;5.470;2023-02-18T04:10:00;3.10;;;2.00;;
13720;SDS011;6932;51.438;5.470;2023-02-18T04:12:26;2.00;;;1.70;;
13720;SDS011;6932;51.438;5.470;2023-02-18T04:14:52;2.23;;;1.70;;
13720;SDS011;6932;51.438;5.470;2023-02-18T04:17:18;1.83;;;1.40;;
13720;SDS011;6932;51.438;5.470;2023-02-18T04:19:44;2.20;;;1.60;;
13720;SDS011;6932;51.438;5.470;2023-02-18T04:22:09;2.57;;;1.77;;
13720;SDS011;6932;51.438;5.470;2023-02-18T04:24:35;1.60;;;1.43;;
13720;SDS011;6932;51.438;5.470;2023-02-18T04:27:01;1.37;;;1.27;;
13720;SDS011;6932;51.438;5.470;2023-02-18T04:29:27;1.50;;;1.40;;
13720;SDS011;6932;51.438;5.470;2023-02-18T04:31:53;1.57;;;1.20;;
13720;SDS011;6932;51.438;5.470;2023-02-18T04:34:18;1.50;;;1.30;;
13720;SDS011;6932;51.438;5.470;2023-02-18T04:36:44;1.30;;;1.20;;
13720;SDS011;6932;51.438;5.470;2023-02-18T04:39:10;1.37;;;1.10;;
13720;SDS011;6932;51.438;5.470;2023-02-18T04:41:35;1.43;;;1.20;;
13720;SDS011;6932;51.438;5.470;2023-02-18T04:44:01;1.40;;;1.27;;
13720;SDS011;6932;51.438;5.470;2023-02-18T04:46:27;1.63;;;1.13;;
13720;SDS011;6932;51.438;5.470;2023-02-18T04:48:53;1.60;;;1.40;;
13720;SDS011;6932;51.438;5.470;2023-02-18T04:51:19;1.20;;;1.10;;
13720;SDS011;6932;51.438;5.470;2023-02-18T04:53:45;1.50;;;1.20;;
13720;SDS011;6932;51.438;5.470;2023-02-18T04:56:11;1.13;;;1.03;;
13720;SDS011;6932;51.438;5.470;2023-02-18T04:58:36;1.20;;;1.10;;
13720;SDS011;6932;51.438;5.470;2023-02-18T05:01:02;1.60;;;1.17;;
13720;SDS011;6932;51.438;5.470;2023-02-18T05:03:29;1.10;;;1.00;;
13720;SDS011;6932;51.438;5.470;2023-02-18T05:05:56;1.40;;;1.10;;
13720;SDS011;6932;51.438;5.470;2023-02-18T05:08:22;1.50;;;1.37;;
13720;SDS011;6932;51.438;5.470;2023-02-18T05:10:48;1.20;;;1.10;;
13720;SDS011;6932;51.438;5.470;2023-02-18T05:13:14;1.47;;;1.23;;
13720;SDS011;6932;51.438;5.470;2023-02-18T05:15:40;1.27;;;1.13;;
13720;SDS011;6932;51.438;5.470;2023-02-18T05:18:06;1.33;;;1.03;;
13720;SDS011;6932;51.438;5.470;2023-02-18T05:20:32;1.07;;;1.00;;
13720;SDS011;6932;51.438;5.470;2023-02-18T05:22:58;0.87;;;0.87;;
13720;SDS011;6932;51.438;5.470;2023-02-18T05:25:24;1.43;;;1.30;;
13720;SDS011;6932;51.438;5.470;2023-02-18T05:27:49;1.50;;;1.17;;
13720;SDS011;6932;51.438;5.470;2023-02-18T05:30:15;1.33;;;1.23;;
13720;SDS011;6932;51.438;5.470;2023-02-18T05:32:41;1.53;;;1.20;;
13720;SDS011;6932;51.438;5.470;2023-02-18T05:35:07;1.50;;;1.30;;
13720;SDS011;6932;51.438;5.470;2023-02-18T05:37:33;1.83;;;1.30;;
13720;SDS011;6932;51.438;5.470;2023-02-18T05:39:59;1.83;;;1.40;;
13720;SDS011;6932;51.438;5.470;2023-02-18T05:42:25;1.40;;;1.30;;
13720;SDS011;6932;51.438;5.470;2023-02-18T05:44:50;1.47;;;1.30;;
13720;SDS011;6932;51.438;5.470;2023-02-18T05:47:16;1.30;;;1.20;;
13720;SDS011;6932;51.438;5.470;2023-02-18T05:49:42;1.43;;;1.33;;
13720;SDS011;6932;51.438;5.470;2023-02-18T05:52:08;1.60;;;1.50;;
13720;SDS011;6932;51.438;5.470;2023-02-18T05:54:35;1.80;;;1.60;;
13720;SDS011;6932;51.438;5.470;2023-02-18T05:57:02;1.77;;;1.50;;
13720;SDS011;6932;51.438;5.470;2023-02-18T05:59:28;1.40;;;1.30;;
13720;SDS011;6932;51.438;5.470;2023-02-18T06:01:55;1.70;;;1.40;;
13720;SDS011;6932;51.438;5.470;2023-02-18T06:04:21;2.00;;;1.60;;
13720;SDS011;6932;51.438;5.470;2023-02-18T06:06:47;1.50;;;1.40;;
13720;SDS011;6932;51.438;5.470;2023-02-18T06:09:13;1.50;;;1.40;;
13720;SDS011;6932;51.438;5.470;2023-02-18T06:11:39;1.60;;;1.50;;
13720;SDS011;6932;51.438;5.470;2023-02-18T06:14:05;1.50;;;1.40;;
13720;SDS011;6932;51.438;5.470;2023-02-18T06:16:31;1.60;;;1.50;;
13720;SDS011;6932;51.438;5.470;2023-02-18T06:18:57;1.90;;;1.70;;
13720;SDS011;6932;51.438;5.470;2023-02-18T06:21:23;1.90;;;1.70;;
13720;SDS011;6932;51.438;5.470;2023-02-18T06:23:49;1.90;;;1.60;;
13720;SDS011;6932;51.438;5.470;2023-02-18T06:26:15;1.90;;;1.70;;
13720;SDS011;6932;51.438;5.470;2023-02-18T06:28:40;2.33;;;1.90;;
13720;SDS011;6932;51.438;5.470;2023-02-18T06:31:06;2.00;;;1.77;;
13720;SDS011;6932;51.438;5.470;2023-02-18T06:33:32;2.10;;;1.90;;
13720;SDS011;6932;51.438;5.470;2023-02-18T06:36:02;2.43;;;1.83;;
13720;SDS011;6932;51.438;5.470;2023-02-18T06:38:32;2.43;;;1.90;;
13720;SDS011;6932;51.438;5.470;2023-02-18T06:40:59;2.10;;;1.70;;
13720;SDS011;6932;51.438;5.470;2023-02-18T06:43:26;1.90;;;1.60;;
13720;SDS011;6932;51.438;5.470;2023-02-18T06:45:51;1.70;;;1.60;;
13720;SDS011;6932;51.438;5.470;2023-02-18T06:48:17;2.40;;;1.80;;
13720;SDS011;6932;51.438;5.470;2023-02-18T06:50:43;1.70;;;1.60;;
13720;SDS011;6932;51.438;5.470;2023-02-18T06:53:09;1.70;;;1.53;;
13720;SDS011;6932;51.438;5.470;2023-02-18T06:55:35;1.60;;;1.50;;
13720;SDS011;6932;51.438;5.470;2023-02-18T06:58:02;2.00;;;1.80;;
13720;SDS011;6932;51.438;5.470;2023-02-18T07:00:28;2.00;;;1.80;;
13720;SDS011;6932;51.438;5.470;2023-02-18T07:02:54;2.77;;;1.80;;
13720;SDS011;6932;51.438;5.470;2023-02-18T07:05:19;2.43;;;1.83;;
13720;SDS011;6932;51.438;5.470;2023-02-18T07:07:45;2.37;;;1.80;;
13720;SDS011;6932;51.438;5.470;2023-02-18T07:10:11;2.10;;;1.73;;
13720;SDS011;6932;51.438;5.470;2023-02-18T07:12:37;2.00;;;1.80;;
13720;SDS011;6932;51.438;5.470;2023-02-18T07:15:02;2.33;;;1.90;;
13720;SDS011;6932;51.438;5.470;2023-02-18T07:17:29;2.27;;;1.90;;
13720;SDS011;6932;51.438;5.470;2023-02-18T07:19:54;5.67;;;2.40;;
13720;SDS011;6932;51.438;5.470;2023-02-18T07:22:20;4.67;;;2.10;;
13720;SDS011;6932;51.438;5.470;2023-02-18T07:24:50;4.47;;;2.40;;
13720;SDS011;6932;51.438;5.470;2023-02-18T07:27:19;5.27;;;2.40;;
13720;SDS011;6932;51.438;5.470;2023-02-18T07:29:46;4.47;;;2.20;;
13720;SDS011;6932;51.438;5.470;2023-02-18T07:32:13;4.83;;;1.90;;
13720;SDS011;6932;51.438;5.470;2023-02-18T07:34:41;5.10;;;2.00;;
13720;SDS011;6932;51.438;5.470;2023-02-18T07:37:07;5.93;;;1.97;;
13720;SDS011;6932;51.438;5.470;2023-02-18T07:39:39;5.33;;;1.93;;
13720;SDS011;6932;51.438;5.470;2023-02-18T07:42:07;5.13;;;2.00;;
13720;SDS011;6932;51.438;5.470;2023-02-18T07:44:35;3.87;;;1.77;;
13720;SDS011;6932;51.438;5.470;2023-02-18T07:47:02;5.57;;;1.97;;
13720;SDS011;6932;51.438;5.470;2023-02-18T07:49:29;4.33;;;1.80;;
13720;SDS011;6932;51.438;5.470;2023-02-18T07:51:56;4.33;;;1.90;;
13720;SDS011;6932;51.438;5.470;2023-02-18T07:54:21;5.67;;;1.90;;
13720;SDS011;6932;51.438;5.470;2023-02-18T07:56:47;3.53;;;1.63;;
13720;SDS011;6932;51.438;5.470;2023-02-18T07:59:14;6.90;;;2.10;;
13720;SDS011;6932;51.438;5.470;2023-02-18T08:01:40;4.07;;;1.80;;
13720;SDS011;6932;51.438;5.470;2023-02-18T08:04:06;6.67;;;1.97;;
13720;SDS011;6932;51.438;5.470;2023-02-18T08:06:34;6.13;;;2.03;;
13720;SDS011;6932;51.438;5.470;2023-02-18T08:09:05;5.10;;;2.10;;
13720;SDS011;6932;51.438;5.470;2023-02-18T08:11:31;6.77;;;2.40;;
13720;SDS011;6932;51.438;5.470;2023-02-18T08:13:58;5.43;;;2.20;;
13720;SDS011;6932;51.438;5.470;2023-02-18T08:16:24;7.33;;;2.67;;
13720;SDS011;6932;51.438;5.470;2023-02-18T08:18:50;5.70;;;2.10;;
13720;SDS011;6932;51.438;5.470;2023-02-18T08:21:17;7.53;;;2.07;;
13720;SDS011;6932;51.438;5.470;2023-02-18T08:23:46;6.33;;;2.20;;
13720;SDS011;6932;51.438;5.470;2023-02-18T08:26:12;9.30;;;2.90;;
13720;SDS011;6932;51.438;5.470;2023-02-18T08:28:39;6.03;;;2.37;;
13720;SDS011;6932;51.438;5.470;2023-02-18T08:31:05;6.40;;;2.13;;
13720;SDS011;6932;51.438;5.470;2023-02-18T08:33:31;9.27;;;2.70;;
13720;SDS011;6932;51.438;5.470;2023-02-18T08:35:57;7.27;;;2.80;;
13720;SDS011;6932;51.438;5.470;2023-02-18T08:38:23;6.93;;;2.90;;
13720;SDS011;6932;51.438;5.470;2023-02-18T08:40:49;9.03;;;2.90;;
13720;SDS011;6932;51.438;5.470;2023-02-18T08:43:16;7.43;;;2.80;;
13720;SDS011;6932;51.438;5.470;2023-02-18T08:45:43;7.10;;;2.60;;
13720;SDS011;6932;51.438;5.470;2023-02-18T08:48:10;6.00;;;2.50;;
13720;SDS011;6932;51.438;5.470;2023-02-18T08:50:37;6.20;;;2.60;;
13720;SDS011;6932;51.438;5.470;2023-02-18T08:53:03;8.53;;;2.50;;
13720;SDS011;6932;51.438;5.470;2023-02-18T08:55:30;6.70;;;2.43;;
13720;SDS011;6932;51.438;5.470;2023-02-18T08:57:58;6.90;;;2.40;;
13720;SDS011;6932;51.438;5.470;2023-02-18T09:00:25;9.40;;;2.60;;
13720;SDS011;6932;51.438;5.470;2023-02-18T09:02:51;7.30;;;2.77;;
13720;SDS011;6932;51.438;5.470;2023-02-18T09:05:17;6.73;;;3.20;;
13720;SDS011;6932;51.438;5.470;2023-02-18T09:07:43;7.73;;;2.83;;
13720;SDS011;6932;51.438;5.470;2023-02-18T09:10:09;6.17;;;2.27;;
13720;SDS011;6932;51.438;5.470;2023-02-18T09:12:35;7.47;;;2.53;;
13720;SDS011;6932;51.438;5.470;2023-02-18T09:15:01;4.33;;;2.07;;
13720;SDS011;6932;51.438;5.470;2023-02-18T09:17:29;8.57;;;2.60;;
13720;SDS011;6932;51.438;5.470;2023-02-18T09:19:55;7.17;;;2.60;;
13720;SDS011;6932;51.438;5.470;2023-02-18T09:22:21;5.03;;;2.10;;
13720;SDS011;6932;51.438;5.470;2023-02-18T09:24:47;5.03;;;2.20;;
13720;SDS011;6932;51.438;5.470;2023-02-18T09:27:12;8.03;;;2.67;;
13720;SDS011;6932;51.438;5.470;2023-02-18T09:29:39;7.13;;;2.20;;
13720;SDS011;6932;51.438;5.470;2023-02-18T09:32:06;6.53;;;2.23;;
13720;SDS011;6932;51.438;5.470;2023-02-18T09:34:34;8.43;;;2.20;;
13720;SDS011;6932;51.438;5.470;2023-02-18T09:37:01;5.37;;;2.20;;
13720;SDS011;6932;51.438;5.470;2023-02-18T09:39:27;7.17;;;2.43;;
13720;SDS011;6932;51.438;5.470;2023-02-18T09:41:56;6.67;;;2.40;;
13720;SDS011;6932;51.438;5.470;2023-02-18T09:44:37;6.80;;;2.10;;
13720;SDS011;6932;51.438;5.470;2023-02-18T09:49:50;6.13;;;1.80;;
13720;SDS011;6932;51.438;5.470;2023-02-18T09:52:27;5.53;;;1.90;;
13720;SDS011;6932;51.438;5.470;2023-02-18T09:54:57;4.80;;;2.00;;
13720;SDS011;6932;51.438;5.470;2023-02-18T09:57:27;6.37;;;2.00;;
13720;SDS011;6932;51.438;5.470;2023-02-18T10:00:12;6.20;;;1.93;;
13720;SDS011;6932;51.438;5.470;2023-02-18T10:02:55;5.90;;;1.97;;
13720;SDS011;6932;51.438;5.470;2023-02-18T10:05:25;6.33;;;2.00;;
13720;SDS011;6932;51.438;5.470;2023-02-18T10:07:55;6.43;;;2.17;;
13720;SDS011;6932;51.438;5.470;2023-02-18T10:13:14;5.07;;;1.90;;
13720;SDS011;6932;51.438;5.470;2023-02-18T10:15:49;5.47;;;2.00;;
13720;SDS011;6932;51.438;5.470;2023-02-18T10:18:30;4.83;;;2.03;;
13720;SDS011;6932;51.438;5.470;2023-02-18T10:21:10;4.63;;;2.00;;
13720;SDS011;6932;51.438;5.470;2023-02-18T10:24:03;6.90;;;2.40;;
13720;SDS011;6932;51.438;5.470;2023-02-18T10:26:55;4.77;;;2.17;;
13720;SDS011;6932;51.438;5.470;2023-02-18T10:29:22;6.03;;;2.30;;
13720;SDS011;6932;51.438;5.470;2023-02-18T10:31:56;6.77;;;2.10;;
13720;SDS011;6932;51.438;5.470;2023-02-18T10:46:21;6.20;;;2.67;;
13720;SDS011;6932;51.438;5.470;2023-02-18T10:52:23;7.13;;;3.63;;
13720;SDS011;6932;51.438;5.470;2023-02-18T10:55:01;9.60;;;3.60;;
13720;SDS011;6932;51.438;5.470;2023-02-18T10:57:33;9.03;;;3.70;;
13720;SDS011;6932;51.438;5.470;2023-02-18T11:02:43;8.50;;;4.13;;
13720;SDS011;6932;51.438;5.470;2023-02-18T11:05:31;7.47;;;4.00;;
13720;SDS011;6932;51.438;5.470;2023-02-18T11:08:00;7.47;;;4.10;;
13720;SDS011;6932;51.438;5.470;2023-02-18T11:10:34;8.47;;;4.20;;
13720;SDS011;6932;51.438;5.470;2023-02-18T11:13:05;8.20;;;4.27;;
13720;SDS011;6932;51.438;5.470;2023-02-18T11:15:34;9.27;;;4.80;;
13720;SDS011;6932;51.438;5.470;2023-02-18T11:18:21;7.00;;;4.10;;
13720;SDS011;6932;51.438;5.470;2023-02-18T11:20:54;7.17;;;4.00;;
13720;SDS011;6932;51.438;5.470;2023-02-18T11:23:26;6.83;;;3.90;;
13720;SDS011;6932;51.438;5.470;2023-02-18T11:25:54;6.73;;;4.33;;
13720;SDS011;6932;51.438;5.470;2023-02-18T11:31:15;8.50;;;4.23;;
13720;SDS011;6932;51.438;5.470;2023-02-18T11:33:57;8.90;;;4.37;;
13720;SDS011;6932;51.438;5.470;2023-02-18T11:36:28;8.23;;;4.57;;
13720;SDS011;6932;51.438;5.470;2023-02-18T11:38:58;8.73;;;4.20;;
13720;SDS011;6932;51.438;5.470;2023-02-18T11:44:29;8.13;;;4.00;;
13720;SDS011;6932;51.438;5.470;2023-02-18T11:49:26;8.13;;;4.00;;
13720;SDS011;6932;51.438;5.470;2023-02-18T11:51:54;8.03;;;3.80;;
13720;SDS011;6932;51.438;5.470;2023-02-18T11:54:30;7.03;;;3.33;;
13720;SDS011;6932;51.438;5.470;2023-02-18T11:57:08;7.43;;;3.00;;
13720;SDS011;6932;51.438;5.470;2023-02-18T11:59:38;6.20;;;3.00;;
13720;SDS011;6932;51.438;5.470;2023-02-18T12:04:45;5.57;;;2.90;;
13720;SDS011;6932;51.438;5.470;2023-02-18T12:07:33;5.53;;;2.73;;
13720;SDS011;6932;51.438;5.470;2023-02-18T12:10:14;8.10;;;3.30;;
13720;SDS011;6932;51.438;5.470;2023-02-18T12:33:41;5.77;;;2.80;;
13720;SDS011;6932;51.438;5.470;2023-02-18T13:07:02;6.07;;;3.10;;
13720;SDS011;6932;51.438;5.470;2023-02-18T13:15:49;6.33;;;3.00;;
13720;SDS011;6932;51.438;5.470;2023-02-18T13:21:05;6.03;;;2.70;;
13720;SDS011;6932;51.438;5.470;2023-02-18T13:23:37;6.40;;;3.17;;
13720;SDS011;6932;51.438;5.470;2023-02-18T13:26:19;5.07;;;3.00;;
13720;SDS011;6932;51.438;5.470;2023-02-18T13:31:46;6.67;;;3.00;;
13720;SDS011;6932;51.438;5.470;2023-02-18T13:34:35;5.53;;;2.90;;
13720;SDS011;6932;51.438;5.470;2023-02-18T13:39:56;5.93;;;3.27;;
13720;SDS011;6932;51.438;5.470;2023-02-18T13:42:27;7.00;;;3.27;;
13720;SDS011;6932;51.438;5.470;2023-02-18T13:58:27;6.67;;;3.37;;
13720;SDS011;6932;51.438;5.470;2023-02-18T14:06:13;5.77;;;3.30;;
13720;SDS011;6932;51.438;5.470;2023-02-18T14:09:03;6.17;;;3.30;;
13720;SDS011;6932;51.438;5.470;2023-02-18T14:11:39;5.90;;;3.30;;
13720;SDS011;6932;51.438;5.470;2023-02-18T14:19:38;7.17;;;3.47;;
13720;SDS011;6932;51.438;5.470;2023-02-18T14:27:37;5.90;;;3.87;;
13720;SDS011;6932;51.438;5.470;2023-02-18T14:33:05;6.87;;;3.73;;
13720;SDS011;6932;51.438;5.470;2023-02-18T14:35:46;6.37;;;3.90;;
13720;SDS011;6932;51.438;5.470;2023-02-18T14:50:40;11.53;;;5.10;;
13720;SDS011;6932;51.438;5.470;2023-02-18T14:53:14;7.67;;;4.30;;
13720;SDS011;6932;51.438;5.470;2023-02-18T14:55:47;7.70;;;4.33;;
13720;SDS011;6932;51.438;5.470;2023-02-18T15:01:23;9.43;;;5.13;;
13720;SDS011;6932;51.438;5.470;2023-02-18T15:03:54;8.57;;;4.60;;
13720;SDS011;6932;51.438;5.470;2023-02-18T15:08:57;7.10;;;3.93;;
13720;SDS011;6932;51.438;5.470;2023-02-18T15:11:39;7.33;;;4.10;;
13720;SDS011;6932;51.438;5.470;2023-02-18T15:14:18;8.80;;;4.87;;
13720;SDS011;6932;51.438;5.470;2023-02-18T15:16:53;9.37;;;4.70;;
13720;SDS011;6932;51.438;5.470;2023-02-18T15:19:21;9.63;;;4.43;;
13720;SDS011;6932;51.438;5.470;2023-02-18T15:21:53;10.33;;;5.07;;
13720;SDS011;6932;51.438;5.470;2023-02-18T15:24:25;9.07;;;4.97;;
13720;SDS011;6932;51.438;5.470;2023-02-18T15:26:52;8.70;;;5.00;;
13720;SDS011;6932;51.438;5.470;2023-02-18T15:29:24;7.60;;;4.83;;
13720;SDS011;6932;51.438;5.470;2023-02-18T15:31:53;10.67;;;5.13;;
13720;SDS011;6932;51.438;5.470;2023-02-18T15:34:32;8.13;;;5.10;;
13720;SDS011;6932;51.438;5.470;2023-02-18T15:37:04;9.13;;;5.47;;
13720;SDS011;6932;51.438;5.470;2023-02-18T15:39:35;11.00;;;5.63;;
13720;SDS011;6932;51.438;5.470;2023-02-18T15:44:57;12.27;;;6.10;;
13720;SDS011;6932;51.438;5.470;2023-02-18T15:47:29;11.10;;;5.80;;
13720;SDS011;6932;51.438;5.470;2023-02-18T15:49:57;9.90;;;5.60;;
13720;SDS011;6932;51.438;5.470;2023-02-18T15:52:30;11.40;;;6.20;;
13720;SDS011;6932;51.438;5.470;2023-02-18T15:55:12;11.27;;;6.30;;
13720;SDS011;6932;51.438;5.470;2023-02-18T15:57:55;11.43;;;6.67;;
13720;SDS011;6932;51.438;5.470;2023-02-18T16:00:28;11.57;;;6.53;;
13720;SDS011;6932;51.438;5.470;2023-02-18T16:03:02;11.37;;;6.53;;
13720;SDS011;6932;51.438;5.470;2023-02-18T16:05:36;10.80;;;6.73;;
13720;SDS011;6932;51.438;5.470;2023-02-18T16:08:14;10.03;;;6.53;;
13720;SDS011;6932;51.438;5.470;2023-02-18T16:10:55;12.07;;;7.37;;
13720;SDS011;6932;51.438;5.470;2023-02-18T16:13:28;12.10;;;6.63;;
13720;SDS011;6932;51.438;5.470;2023-02-18T16:15:55;12.07;;;6.93;;
13720;SDS011;6932;51.438;5.470;2023-02-18T16:18:30;11.07;;;7.10;;
13720;SDS011;6932;51.438;5.470;2023-02-18T16:21:20;11.27;;;7.13;;
13720;SDS011;6932;51.438;5.470;2023-02-18T16:26:54;11.77;;;7.53;;
13720;SDS011;6932;51.438;5.470;2023-02-18T16:29:24;12.10;;;7.90;;
13720;SDS011;6932;51.438;5.470;2023-02-18T16:32:04;11.90;;;7.70;;
13720;SDS011;6932;51.438;5.470;2023-02-18T16:34:30;13.40;;;8.40;;
13720;SDS011;6932;51.438;5.470;2023-02-18T16:36:55;12.17;;;8.10;;
13720;SDS011;6932;51.438;5.470;2023-02-18T16:39:40;13.80;;;8.87;;
13720;SDS011;6932;51.438;5.470;2023-02-18T16:42:09;13.00;;;9.07;;
13720;SDS011;6932;51.438;5.470;2023-02-18T16:44:38;13.00;;;8.67;;
13720;SDS011;6932;51.438;5.470;2023-02-18T16:47:04;12.80;;;8.40;;
13720;SDS011;6932;51.438;5.470;2023-02-18T16:49:32;13.50;;;9.20;;
13720;SDS011;6932;51.438;5.470;2023-02-18T16:52:00;12.50;;;8.30;;
13720;SDS011;6932;51.438;5.470;2023-02-18T16:54:32;12.55;;;7.90;;
13720;SDS011;6932;51.438;5.470;2023-02-18T16:56:58;11.23;;;7.20;;
13720;SDS011;6932;51.438;5.470;2023-02-18T16:59:24;11.87;;;6.90;;
13720;SDS011;6932;51.438;5.470;2023-02-18T17:01:50;10.33;;;6.20;;
13720;SDS011;6932;51.438;5.470;2023-02-18T17:04:16;9.63;;;5.33;;
13720;SDS011;6932;51.438;5.470;2023-02-18T17:06:44;10.23;;;5.80;;
13720;SDS011;6932;51.438;5.470;2023-02-18T17:09:14;9.67;;;5.43;;
13720;SDS011;6932;51.438;5.470;2023-02-18T17:11:46;9.70;;;5.60;;
13720;SDS011;6932;51.438;5.470;2023-02-18T17:14:15;7.97;;;5.30;;
13720;SDS011;6932;51.438;5.470;2023-02-18T17:16:43;7.47;;;4.90;;
13720;SDS011;6932;51.438;5.470;2023-02-18T17:19:14;9.33;;;5.00;;
13720;SDS011;6932;51.438;5.470;2023-02-18T17:21:40;8.07;;;4.93;;
13720;SDS011;6932;51.438;5.470;2023-02-18T17:24:13;10.07;;;5.20;;
13720;SDS011;6932;51.438;5.470;2023-02-18T17:26:41;9.20;;;5.33;;
13720;SDS011;6932;51.438;5.470;2023-02-18T17:29:07;9.00;;;5.40;;
13720;SDS011;6932;51.438;5.470;2023-02-18T17:31:35;8.47;;;5.40;;
13720;SDS011;6932;51.438;5.470;2023-02-18T17:34:08;9.80;;;5.20;;
13720;SDS011;6932;51.438;5.470;2023-02-18T17:36:48;9.80;;;5.30;;
13720;SDS011;6932;51.438;5.470;2023-02-18T17:39:15;8.20;;;4.90;;
13720;SDS011;6932;51.438;5.470;2023-02-18T17:41:42;9.53;;;5.43;;
13720;SDS011;6932;51.438;5.470;2023-02-18T17:44:12;9.73;;;5.10;;
13720;SDS011;6932;51.438;5.470;2023-02-18T17:46:48;7.97;;;4.83;;
13720;SDS011;6932;51.438;5.470;2023-02-18T17:49:14;9.70;;;5.50;;
13720;SDS011;6932;51.438;5.470;2023-02-18T17:51:41;10.20;;;5.43;;
13720;SDS011;6932;51.438;5.470;2023-02-18T17:54:14;10.10;;;5.30;;
13720;SDS011;6932;51.438;5.470;2023-02-18T17:56:43;9.90;;;5.67;;
13720;SDS011;6932;51.438;5.470;2023-02-18T17:59:10;9.33;;;5.70;;
13720;SDS011;6932;51.438;5.470;2023-02-18T18:01:36;10.60;;;5.63;;
13720;SDS011;6932;51.438;5.470;2023-02-18T18:04:02;9.03;;;5.03;;
13720;SDS011;6932;51.438;5.470;2023-02-18T18:06:28;9.67;;;4.67;;
13720;SDS011;6932;51.438;5.470;2023-02-18T18:08:54;10.00;;;5.40;;
13720;SDS011;6932;51.438;5.470;2023-02-18T18:11:22;9.47;;;5.20;;
13720;SDS011;6932;51.438;5.470;2023-02-18T18:13:49;11.60;;;5.20;;
13720;SDS011;6932;51.438;5.470;2023-02-18T18:16:17;10.37;;;4.97;;
13720;SDS011;6932;51.438;5.470;2023-02-18T18:18:43;10.37;;;5.13;;
13720;SDS011;6932;51.438;5.470;2023-02-18T18:21:17;9.57;;;5.13;;
13720;SDS011;6932;51.438;5.470;2023-02-18T18:23:58;10.10;;;4.80;;
13720;SDS011;6932;51.438;5.470;2023-02-18T18:26:25;9.03;;;4.90;;
13720;SDS011;6932;51.438;5.470;2023-02-18T18:28:51;9.47;;;4.43;;
13720;SDS011;6932;51.438;5.470;2023-02-18T18:31:17;8.70;;;5.00;;
13720;SDS011;6932;51.438;5.470;2023-02-18T18:33:44;7.27;;;4.57;;
13720;SDS011;6932;51.438;5.470;2023-02-18T18:36:17;10.53;;;4.73;;
13720;SDS011;6932;51.438;5.470;2023-02-18T18:38:44;9.80;;;5.20;;
13720;SDS011;6932;51.438;5.470;2023-02-18T18:41:14;8.47;;;4.90;;
13720;SDS011;6932;51.438;5.470;2023-02-18T18:43:44;9.43;;;5.07;;
13720;SDS011;6932;51.438;5.470;2023-02-18T18:46:10;8.20;;;4.77;;